sensor_id;sensor_type;location;lat;lon;timestamp;pressure;altitude;pressure_sealevel;temperature;humidity
79067;BME280;68470;50.224;14.348;2023-03-20T00:01:29;99498.66;;;5.18;92.56
79067;BME280;68470;50.224;14.348;2023-03-20T00:03:56;99488.66;;;5.11;92.80
79067;BME280;68470;50.224;14.348;2023-03-20T00:06:24;99491.84;;;5.08;92.97
79067;BME280;68470;50.224;14.348;2023-03-20T00:08:52;99488.75;;;5.05;92.64
79067;BME280;68470;50.224;14.348;2023-03-20T00:11:26;99482.59;;;5.09;93.00
79067;BME280;68470;50.224;14.348;2023-03-20T00:13:57;99493.16;;;5.24;93.93
79067;BME280;68470;50.224;14.348;2023-03-20T00:16:28;99493.06;;;5.31;93.54
79067;BME280;68470;50.224;14.348;2023-03-20T00:18:54;99487.91;;;5.23;93.29
79067;BME280;68470;50.224;14.348;2023-03-20T00:21:21;99498.84;;;5.23;92.51
79067;BME280;68470;50.224;14.348;2023-03-20T00:23:46;99492.78;;;5.21;92.33
79067;BME280;68470;50.224;14.348;2023-03-20T00:26:15;99489.41;;;5.19;93.21
79067;BME280;68470;50.224;14.348;2023-03-20T00:28:46;99499.44;;;5.06;92.90
79067;BME280;68470;50.224;14.348;2023-03-20T00:33:49;99490.94;;;4.96;93.62
79067;BME280;68470;50.224;14.348;2023-03-20T00:36:15;99488.19;;;4.78;93.57
79067;BME280;68470;50.224;14.348;2023-03-20T00:38:40;99493.88;;;4.51;92.80
79067;BME280;68470;50.224;14.348;2023-03-20T00:41:20;99497.06;;;4.23;93.54
79067;BME280;68470;50.224;14.348;2023-03-20T00:43:48;99491.06;;;4.15;95.66
79067;BME280;68470;50.224;14.348;2023-03-20T00:46:15;99502.69;;;4.04;95.76
79067;BME280;68470;50.224;14.348;2023-03-20T00:48:41;99501.53;;;3.86;95.21
79067;BME280;68470;50.224;14.348;2023-03-20T00:51:08;99499.94;;;3.72;95.42
79067;BME280;68470;50.224;14.348;2023-03-20T00:53:34;99496.84;;;3.62;95.03
79067;BME280;68470;50.224;14.348;2023-03-20T00:56:00;99498.53;;;3.63;95.62
79067;BME280;68470;50.224;14.348;2023-03-20T00:58:27;99489.53;;;3.62;95.58
79067;BME280;68470;50.224;14.348;2023-03-20T01:00:53;99489.47;;;3.69;95.98
79067;BME280;68470;50.224;14.348;2023-03-20T01:03:24;99482.63;;;3.60;95.76
79067;BME280;68470;50.224;14.348;2023-03-20T01:05:51;99486.97;;;3.68;95.94
79067;BME280;68470;50.224;14.348;2023-03-20T01:08:20;99487.41;;;3.65;95.59
79067;BME280;68470;50.224;14.348;2023-03-20T01:10:48;99484.28;;;3.61;95.77
79067;BME280;68470;50.224;14.348;2023-03-20T01:13:25;99482.34;;;3.68;95.81
79067;BME280;68470;50.224;14.348;2023-03-20T01:15:53;99485.28;;;3.67;95.79
79067;BME280;68470;50.224;14.348;2023-03-20T01:18:20;99488.28;;;3.58;95.17
79067;BME280;68470;50.224;14.348;2023-03-20T01:20:47;99484.97;;;3.56;95.76
79067;BME280;68470;50.224;14.348;2023-03-20T01:23:13;99499.25;;;3.45;95.89
79067;BME280;68470;50.224;14.348;2023-03-20T01:25:40;99508.09;;;3.27;95.57
79067;BME280;68470;50.224;14.348;2023-03-20T01:28:22;99508.59;;;3.11;95.39
79067;BME280;68470;50.224;14.348;2023-03-20T01:30:49;99502.13;;;2.99;95.81
79067;BME280;68470;50.224;14.348;2023-03-20T01:33:18;99497.28;;;3.14;96.19
79067;BME280;68470;50.224;14.348;2023-03-20T01:35:45;99506.66;;;3.18;96.38
79067;BME280;68470;50.224;14.348;2023-03-20T01:38:19;99500.22;;;3.13;96.15
79067;BME280;68470;50.224;14.348;2023-03-20T01:40:52;99491.41;;;3.17;96.10
79067;BME280;68470;50.224;14.348;2023-03-20T01:43:21;99493.28;;;3.23;96.04
79067;BME280;68470;50.224;14.348;2023-03-20T01:46:14;99494.94;;;3.24;96.48
79067;BME280;68470;50.224;14.348;2023-03-20T01:51:26;99497.19;;;3.34;96.48
79067;BME280;68470;50.224;14.348;2023-03-20T01:53:58;99489.25;;;3.32;96.50
79067;BME280;68470;50.224;14.348;2023-03-20T01:56:28;99487.13;;;3.41;96.29
79067;BME280;68470;50.224;14.348;2023-03-20T01:59:00;99502.94;;;3.57;96.19
79067;BME280;68470;50.224;14.348;2023-03-20T02:01:28;99495.78;;;3.63;96.12
79067;BME280;68470;50.224;14.348;2023-03-20T02:03:55;99505.38;;;3.72;96.12
79067;BME280;68470;50.224;14.348;2023-03-20T02:06:23;99491.56;;;3.67;95.51
79067;BME280;68470;50.224;14.348;2023-03-20T02:08:51;99492.47;;;3.61;95.38
79067;BME280;68470;50.224;14.348;2023-03-20T02:11:21;99486.22;;;3.54;95.36
79067;BME280;68470;50.224;14.348;2023-03-20T02:13:50;99491.28;;;3.44;94.88
79067;BME280;68470;50.224;14.348;2023-03-20T02:16:17;99495.25;;;3.48;95.12
79067;BME280;68470;50.224;14.348;2023-03-20T02:18:46;99485.19;;;3.55;95.93
79067;BME280;68470;50.224;14.348;2023-03-20T02:27:11;99481.97;;;3.65;95.29
79067;BME280;68470;50.224;14.348;2023-03-20T02:32:47;99483.31;;;3.49;95.34
79067;BME280;68470;50.224;14.348;2023-03-20T02:54:37;99475.06;;;2.33;95.45
79067;BME280;68470;50.224;14.348;2023-03-20T02:57:13;99483.22;;;2.46;95.92
79067;BME280;68470;50.224;14.348;2023-03-20T03:02:20;99483.84;;;2.35;96.26
79067;BME280;68470;50.224;14.348;2023-03-20T03:04:55;99489.06;;;2.30;96.40
79067;BME280;68470;50.224;14.348;2023-03-20T03:07:26;99483.84;;;2.41;96.89
79067;BME280;68470;50.224;14.348;2023-03-20T03:09:59;99486.53;;;2.48;97.15
79067;BME280;68470;50.224;14.348;2023-03-20T03:12:30;99476.94;;;2.52;96.98
79067;BME280;68470;50.224;14.348;2023-03-20T03:15:02;99465.81;;;2.67;97.16
79067;BME280;68470;50.224;14.348;2023-03-20T03:17:32;99480.44;;;2.79;97.03
79067;BME280;68470;50.224;14.348;2023-03-20T03:20:03;99472.69;;;2.83;96.98
79067;BME280;68470;50.224;14.348;2023-03-20T03:22:33;99473.94;;;2.87;96.80
79067;BME280;68470;50.224;14.348;2023-03-20T03:25:01;99483.13;;;2.92;97.07
79067;BME280;68470;50.224;14.348;2023-03-20T03:27:33;99479.13;;;2.95;96.87
79067;BME280;68470;50.224;14.348;2023-03-20T03:30:25;99477.66;;;3.06;96.98
79067;BME280;68470;50.224;14.348;2023-03-20T03:33:07;99483.88;;;3.19;96.51
79067;BME280;68470;50.224;14.348;2023-03-20T03:35:34;99470.69;;;3.23;96.61
79067;BME280;68470;50.224;14.348;2023-03-20T03:43:40;99489.19;;;3.46;96.14
79067;BME280;68470;50.224;14.348;2023-03-20T03:46:15;99469.91;;;3.47;96.28
79067;BME280;68470;50.224;14.348;2023-03-20T03:48:49;99491.78;;;3.66;96.40
79067;BME280;68470;50.224;14.348;2023-03-20T03:51:21;99487.00;;;3.61;95.89
79067;BME280;68470;50.224;14.348;2023-03-20T03:53:54;99466.97;;;3.55;95.54
79067;BME280;68470;50.224;14.348;2023-03-20T03:56:24;99479.44;;;3.70;95.37
79067;BME280;68470;50.224;14.348;2023-03-20T03:58:56;99487.28;;;3.84;95.65
79067;BME280;68470;50.224;14.348;2023-03-20T04:01:25;99488.88;;;3.99;94.63
79067;BME280;68470;50.224;14.348;2023-03-20T04:03:55;99488.41;;;4.02;94.88
79067;BME280;68470;50.224;14.348;2023-03-20T04:06:24;99489.66;;;4.06;94.50
79067;BME280;68470;50.224;14.348;2023-03-20T04:08:51;99491.94;;;4.09;94.28
79067;BME280;68470;50.224;14.348;2023-03-20T04:11:19;99493.00;;;4.08;94.29
79067;BME280;68470;50.224;14.348;2023-03-20T04:13:47;99485.44;;;4.10;94.25
79067;BME280;68470;50.224;14.348;2023-03-20T04:16:14;99490.88;;;4.10;94.58
79067;BME280;68470;50.224;14.348;2023-03-20T04:18:41;99490.44;;;4.13;94.06
79067;BME280;68470;50.224;14.348;2023-03-20T04:21:08;99486.22;;;4.17;94.47
79067;BME280;68470;50.224;14.348;2023-03-20T04:23:34;99503.00;;;4.14;93.75
79067;BME280;68470;50.224;14.348;2023-03-20T04:26:00;99491.50;;;4.12;93.86
79067;BME280;68470;50.224;14.348;2023-03-20T04:28:26;99496.34;;;4.10;94.04
79067;BME280;68470;50.224;14.348;2023-03-20T04:30:54;99495.34;;;4.04;93.78
79067;BME280;68470;50.224;14.348;2023-03-20T04:33:21;99507.72;;;4.00;94.28
79067;BME280;68470;50.224;14.348;2023-03-20T04:35:47;99500.56;;;4.06;94.42
79067;BME280;68470;50.224;14.348;2023-03-20T04:38:14;99496.94;;;4.12;94.35
79067;BME280;68470;50.224;14.348;2023-03-20T04:40:42;99505.88;;;4.19;94.04
79067;BME280;68470;50.224;14.348;2023-03-20T04:43:08;99490.13;;;4.28;93.75
79067;BME280;68470;50.224;14.348;2023-03-20T04:45:34;99494.44;;;4.35;93.64
79067;BME280;68470;50.224;14.348;2023-03-20T04:48:00;99494.41;;;4.42;93.82
79067;BME280;68470;50.224;14.348;2023-03-20T04:50:27;99501.22;;;4.51;93.54
79067;BME280;68470;50.224;14.348;2023-03-20T04:52:53;99494.34;;;4.48;93.09
79067;BME280;68470;50.224;14.348;2023-03-20T04:55:19;99493.06;;;4.51;93.16
79067;BME280;68470;50.224;14.348;2023-03-20T04:57:44;99503.94;;;4.76;92.65
79067;BME280;68470;50.224;14.348;2023-03-20T05:00:11;99496.03;;;4.68;92.69
79067;BME280;68470;50.224;14.348;2023-03-20T05:02:36;99498.78;;;4.68;92.78
79067;BME280;68470;50.224;14.348;2023-03-20T05:05:03;99501.22;;;4.76;92.91
79067;BME280;68470;50.224;14.348;2023-03-20T05:07:29;99507.88;;;4.80;93.44
79067;BME280;68470;50.224;14.348;2023-03-20T05:09:55;99504.78;;;4.76;92.95
79067;BME280;68470;50.224;14.348;2023-03-20T05:12:21;99503.94;;;4.76;93.62
79067;BME280;68470;50.224;14.348;2023-03-20T05:14:47;99509.09;;;4.84;94.01
79067;BME280;68470;50.224;14.348;2023-03-20T05:17:13;99513.66;;;4.72;93.50
79067;BME280;68470;50.224;14.348;2023-03-20T05:19:39;99508.34;;;4.77;93.59
79067;BME280;68470;50.224;14.348;2023-03-20T05:22:07;99506.91;;;4.93;93.81
79067;BME280;68470;50.224;14.348;2023-03-20T05:24:33;99502.16;;;5.06;93.19
79067;BME280;68470;50.224;14.348;2023-03-20T05:26:59;99517.53;;;5.19;92.42
79067;BME280;68470;50.224;14.348;2023-03-20T05:29:25;99522.97;;;5.19;92.51
79067;BME280;68470;50.224;14.348;2023-03-20T05:31:51;99512.91;;;5.20;92.18
79067;BME280;68470;50.224;14.348;2023-03-20T05:34:17;99503.50;;;5.16;93.01
79067;BME280;68470;50.224;14.348;2023-03-20T05:36:42;99507.00;;;5.23;92.38
79067;BME280;68470;50.224;14.348;2023-03-20T05:39:08;99519.75;;;5.29;92.53
79067;BME280;68470;50.224;14.348;2023-03-20T05:41:35;99520.44;;;5.24;91.84
79067;BME280;68470;50.224;14.348;2023-03-20T05:44:01;99524.38;;;5.28;91.59
79067;BME280;68470;50.224;14.348;2023-03-20T05:46:26;99514.50;;;5.27;92.59
79067;BME280;68470;50.224;14.348;2023-03-20T05:48:53;99527.09;;;5.28;91.80
79067;BME280;68470;50.224;14.348;2023-03-20T05:51:19;99523.22;;;5.36;91.93
79067;BME280;68470;50.224;14.348;2023-03-20T05:53:45;99536.72;;;5.31;92.56
79067;BME280;68470;50.224;14.348;2023-03-20T05:56:11;99522.94;;;5.26;92.21
79067;BME280;68470;50.224;14.348;2023-03-20T05:58:37;99539.16;;;5.39;92.63
79067;BME280;68470;50.224;14.348;2023-03-20T06:01:02;99534.91;;;5.43;91.59
79067;BME280;68470;50.224;14.348;2023-03-20T06:03:29;99544.91;;;5.49;92.17
79067;BME280;68470;50.224;14.348;2023-03-20T06:05:55;99538.53;;;5.55;91.62
79067;BME280;68470;50.224;14.348;2023-03-20T06:08:21;99533.22;;;5.60;91.60
79067;BME280;68470;50.224;14.348;2023-03-20T06:10:49;99544.41;;;5.70;91.56
79067;BME280;68470;50.224;14.348;2023-03-20T06:13:16;99528.41;;;5.74;91.40
79067;BME280;68470;50.224;14.348;2023-03-20T06:15:42;99531.41;;;5.84;91.69
79067;BME280;68470;50.224;14.348;2023-03-20T06:18:08;99533.91;;;5.86;91.08
79067;BME280;68470;50.224;14.348;2023-03-20T06:20:34;99543.78;;;5.87;90.44
79067;BME280;68470;50.224;14.348;2023-03-20T06:23:00;99559.28;;;5.93;90.87
79067;BME280;68470;50.224;14.348;2023-03-20T06:25:26;99555.50;;;5.94;91.06
79067;BME280;68470;50.224;14.348;2023-03-20T06:27:52;99561.44;;;5.91;90.99
79067;BME280;68470;50.224;14.348;2023-03-20T06:30:18;99563.38;;;5.84;90.90
79067;BME280;68470;50.224;14.348;2023-03-20T06:32:44;99579.09;;;5.88;91.22
79067;BME280;68470;50.224;14.348;2023-03-20T06:35:10;99567.75;;;5.85;91.71
79067;BME280;68470;50.224;14.348;2023-03-20T06:37:37;99571.53;;;5.90;91.75
79067;BME280;68470;50.224;14.348;2023-03-20T06:40:04;99571.28;;;5.92;91.23
79067;BME280;68470;50.224;14.348;2023-03-20T06:42:30;99574.63;;;5.94;91.32
79067;BME280;68470;50.224;14.348;2023-03-20T06:44:56;99578.56;;;5.98;90.91
79067;BME280;68470;50.224;14.348;2023-03-20T06:47:22;99591.28;;;6.04;91.41
79067;BME280;68470;50.224;14.348;2023-03-20T06:49:48;99583.00;;;6.11;90.24
79067;BME280;68470;50.224;14.348;2023-03-20T06:52:16;99580.16;;;6.17;90.50
79067;BME280;68470;50.224;14.348;2023-03-20T06:54:42;99568.16;;;6.18;90.29
79067;BME280;68470;50.224;14.348;2023-03-20T06:57:08;99590.81;;;6.37;89.98
79067;BME280;68470;50.224;14.348;2023-03-20T06:59:34;99571.22;;;6.40;88.88
79067;BME280;68470;50.224;14.348;2023-03-20T07:02:01;99586.81;;;6.51;89.53
79067;BME280;68470;50.224;14.348;2023-03-20T07:04:27;99580.91;;;6.66;88.02
79067;BME280;68470;50.224;14.348;2023-03-20T07:06:53;99578.22;;;6.89;87.60
79067;BME280;68470;50.224;14.348;2023-03-20T07:09:19;99577.00;;;6.85;88.19
79067;BME280;68470;50.224;14.348;2023-03-20T07:11:47;99568.06;;;6.78;88.06
79067;BME280;68470;50.224;14.348;2023-03-20T07:14:13;99581.75;;;7.02;87.49
79067;BME280;68470;50.224;14.348;2023-03-20T07:16:40;99571.16;;;7.05;87.61
79067;BME280;68470;50.224;14.348;2023-03-20T07:19:06;99578.44;;;7.23;87.30
79067;BME280;68470;50.224;14.348;2023-03-20T07:21:33;99579.97;;;7.19;87.58
79067;BME280;68470;50.224;14.348;2023-03-20T07:23:59;99586.28;;;7.31;87.82
79067;BME280;68470;50.224;14.348;2023-03-20T07:26:26;99581.00;;;7.53;86.05
79067;BME280;68470;50.224;14.348;2023-03-20T07:28:51;99587.66;;;7.69;86.25
79067;BME280;68470;50.224;14.348;2023-03-20T07:31:20;99581.91;;;7.82;85.86
79067;BME280;68470;50.224;14.348;2023-03-20T07:33:46;99582.59;;;7.89;86.45
79067;BME280;68470;50.224;14.348;2023-03-20T07:36:12;99573.16;;;7.97;85.69
79067;BME280;68470;50.224;14.348;2023-03-20T07:38:38;99589.34;;;8.10;86.09
79067;BME280;68470;50.224;14.348;2023-03-20T07:41:04;99589.47;;;8.32;85.30
79067;BME280;68470;50.224;14.348;2023-03-20T07:43:30;99587.88;;;8.48;84.61
79067;BME280;68470;50.224;14.348;2023-03-20T07:45:56;99581.13;;;8.55;84.38
79067;BME280;68470;50.224;14.348;2023-03-20T07:48:22;99587.00;;;8.76;83.48
79067;BME280;68470;50.224;14.348;2023-03-20T07:50:48;99587.06;;;8.97;82.06
79067;BME280;68470;50.224;14.348;2023-03-20T07:53:14;99587.56;;;8.94;81.82
79067;BME280;68470;50.224;14.348;2023-03-20T07:55:40;99595.03;;;9.16;81.16
79067;BME280;68470;50.224;14.348;2023-03-20T07:58:05;99587.72;;;9.21;80.40
79067;BME280;68470;50.224;14.348;2023-03-20T08:00:33;99609.41;;;9.40;79.24
79067;BME280;68470;50.224;14.348;2023-03-20T08:02:59;99593.09;;;9.33;79.89
79067;BME280;68470;50.224;14.348;2023-03-20T08:05:25;99590.38;;;9.55;79.16
79067;BME280;68470;50.224;14.348;2023-03-20T08:07:50;99588.41;;;9.72;78.54
79067;BME280;68470;50.224;14.348;2023-03-20T08:10:17;99599.03;;;9.85;78.64
79067;BME280;68470;50.224;14.348;2023-03-20T08:12:42;99587.19;;;10.07;77.96
79067;BME280;68470;50.224;14.348;2023-03-20T08:15:09;99593.00;;;10.27;77.32
79067;BME280;68470;50.224;14.348;2023-03-20T08:17:35;99588.66;;;10.36;77.91
79067;BME280;68470;50.224;14.348;2023-03-20T08:20:01;99601.50;;;10.52;76.78
79067;BME280;68470;50.224;14.348;2023-03-20T08:22:28;99585.78;;;10.48;77.10
79067;BME280;68470;50.224;14.348;2023-03-20T08:24:54;99578.09;;;10.82;75.02
79067;BME280;68470;50.224;14.348;2023-03-20T08:27:19;99586.31;;;11.09;73.74
79067;BME280;68470;50.224;14.348;2023-03-20T08:29:45;99581.72;;;11.25;73.23
79067;BME280;68470;50.224;14.348;2023-03-20T08:32:11;99583.53;;;11.46;71.78
79067;BME280;68470;50.224;14.348;2023-03-20T08:34:38;99571.56;;;11.78;71.04
79067;BME280;68470;50.224;14.348;2023-03-20T08:37:04;99578.31;;;12.02;70.23
79067;BME280;68470;50.224;14.348;2023-03-20T08:39:30;99581.13;;;12.22;69.78
79067;BME280;68470;50.224;14.348;2023-03-20T08:41:57;99581.19;;;12.38;68.15
79067;BME280;68470;50.224;14.348;2023-03-20T08:44:23;99582.34;;;12.67;67.62
79067;BME280;68470;50.224;14.348;2023-03-20T08:46:49;99587.63;;;12.94;65.40
79067;BME280;68470;50.224;14.348;2023-03-20T08:49:15;99589.53;;;13.09;64.68
79067;BME280;68470;50.224;14.348;2023-03-20T08:51:41;99592.19;;;13.85;61.70
79067;BME280;68470;50.224;14.348;2023-03-20T08:54:07;99574.56;;;15.09;57.90
79067;BME280;68470;50.224;14.348;2023-03-20T08:56:33;99588.31;;;17.19;49.84
79067;BME280;68470;50.224;14.348;2023-03-20T08:58:59;99576.34;;;19.19;45.21
79067;BME280;68470;50.224;14.348;2023-03-20T09:01:25;99575.94;;;20.45;42.03
79067;BME280;68470;50.224;14.348;2023-03-20T09:03:51;99573.19;;;22.25;37.88
79067;BME280;68470;50.224;14.348;2023-03-20T09:06:17;99571.34;;;21.44;39.76
79067;BME280;68470;50.224;14.348;2023-03-20T09:08:43;99565.56;;;19.88;40.18
79067;BME280;68470;50.224;14.348;2023-03-20T09:11:08;99567.59;;;20.79;38.65
79067;BME280;68470;50.224;14.348;2023-03-20T09:13:35;99565.69;;;21.99;37.09
79067;BME280;68470;50.224;14.348;2023-03-20T09:16:01;99565.81;;;20.09;39.75
79067;BME280;68470;50.224;14.348;2023-03-20T09:18:27;99566.34;;;21.58;38.53
79067;BME280;68470;50.224;14.348;2023-03-20T09:20:52;99559.16;;;22.54;37.09
79067;BME280;68470;50.224;14.348;2023-03-20T09:23:19;99571.06;;;22.51;34.51
79067;BME280;68470;50.224;14.348;2023-03-20T09:25:45;99551.91;;;21.39;37.46
79067;BME280;68470;50.224;14.348;2023-03-20T09:28:11;99543.59;;;23.52;32.13
79067;BME280;68470;50.224;14.348;2023-03-20T09:30:37;99544.84;;;21.32;36.64
79067;BME280;68470;50.224;14.348;2023-03-20T09:33:03;99553.31;;;22.09;35.03
79067;BME280;68470;50.224;14.348;2023-03-20T09:35:29;99555.84;;;24.05;31.62
79067;BME280;68470;50.224;14.348;2023-03-20T09:37:55;99552.56;;;23.13;33.92
79067;BME280;68470;50.224;14.348;2023-03-20T09:45:47;99550.19;;;24.17;33.52
79067;BME280;68470;50.224;14.348;2023-03-20T09:53:40;99548.91;;;25.91;28.64
79067;BME280;68470;50.224;14.348;2023-03-20T09:56:13;99539.53;;;24.47;29.54
79067;BME280;68470;50.224;14.348;2023-03-20T09:58:41;99534.34;;;24.62;29.49
79067;BME280;68470;50.224;14.348;2023-03-20T10:01:12;99539.78;;;23.81;31.23
79067;BME280;68470;50.224;14.348;2023-03-20T10:03:52;99536.91;;;24.67;29.93
79067;BME280;68470;50.224;14.348;2023-03-20T10:06:20;99537.06;;;24.98;29.45
79067;BME280;68470;50.224;14.348;2023-03-20T10:08:46;99529.22;;;25.04;31.13
79067;BME280;68470;50.224;14.348;2023-03-20T10:14:09;99537.31;;;26.98;28.64
79067;BME280;68470;50.224;14.348;2023-03-20T10:19:32;99528.19;;;25.24;30.19
79067;BME280;68470;50.224;14.348;2023-03-20T10:22:21;99523.34;;;26.51;27.83
79067;BME280;68470;50.224;14.348;2023-03-20T10:25:31;99525.59;;;27.57;27.10
79067;BME280;68470;50.224;14.348;2023-03-20T10:28:10;99531.09;;;27.08;26.97
79067;BME280;68470;50.224;14.348;2023-03-20T10:30:55;99527.94;;;27.33;25.48
79067;BME280;68470;50.224;14.348;2023-03-20T10:39:11;99525.44;;;21.74;35.49
79067;BME280;68470;50.224;14.348;2023-03-20T10:41:43;99523.44;;;25.28;29.48
79067;BME280;68470;50.224;14.348;2023-03-20T10:44:21;99517.97;;;27.39;27.54
79067;BME280;68470;50.224;14.348;2023-03-20T10:46:52;99511.25;;;29.32;24.58
79067;BME280;68470;50.224;14.348;2023-03-20T10:49:25;99514.81;;;29.62;24.14
79067;BME280;68470;50.224;14.348;2023-03-20T10:51:58;99510.09;;;28.43;24.66
79067;BME280;68470;50.224;14.348;2023-03-20T10:54:30;99513.53;;;26.80;26.76
79067;BME280;68470;50.224;14.348;2023-03-20T10:56:59;99522.13;;;23.02;33.10
79067;BME280;68470;50.224;14.348;2023-03-20T10:59:29;99510.66;;;20.84;36.51
79067;BME280;68470;50.224;14.348;2023-03-20T11:01:58;99513.91;;;19.68;39.77
79067;BME280;68470;50.224;14.348;2023-03-20T11:04:24;99521.38;;;19.50;40.80
79067;BME280;68470;50.224;14.348;2023-03-20T11:12:33;99516.94;;;19.49;41.17
79067;BME280;68470;50.224;14.348;2023-03-20T11:14:59;99517.19;;;18.86;40.77
79067;BME280;68470;50.224;14.348;2023-03-20T11:17:28;99514.09;;;18.87;42.57
79067;BME280;68470;50.224;14.348;2023-03-20T11:20:02;99513.19;;;18.78;42.12
79067;BME280;68470;50.224;14.348;2023-03-20T11:22:29;99513.78;;;18.53;43.29
79067;BME280;68470;50.224;14.348;2023-03-20T11:25:02;99518.84;;;18.51;43.13
79067;BME280;68470;50.224;14.348;2023-03-20T11:27:30;99505.28;;;18.58;43.30
79067;BME280;68470;50.224;14.348;2023-03-20T11:29:59;99511.56;;;19.00;42.52
79067;BME280;68470;50.224;14.348;2023-03-20T11:32:53;99508.59;;;19.58;41.68
79067;BME280;68470;50.224;14.348;2023-03-20T11:35:29;99512.75;;;19.38;40.29
79067;BME280;68470;50.224;14.348;2023-03-20T11:38:16;99507.06;;;18.54;42.48
79067;BME280;68470;50.224;14.348;2023-03-20T11:40:42;99507.59;;;18.56;42.33
79067;BME280;68470;50.224;14.348;2023-03-20T11:43:12;99493.88;;;18.46;43.47
79067;BME280;68470;50.224;14.348;2023-03-20T11:45:43;99499.28;;;18.28;43.32
79067;BME280;68470;50.224;14.348;2023-03-20T11:48:19;99501.41;;;18.09;44.41
79067;BME280;68470;50.224;14.348;2023-03-20T11:51:08;99501.75;;;17.94;44.62
79067;BME280;68470;50.224;14.348;2023-03-20T11:56:24;99493.88;;;17.27;45.75
79067;BME280;68470;50.224;14.348;2023-03-20T11:59:12;99503.38;;;16.94;46.24
79067;BME280;68470;50.224;14.348;2023-03-20T12:01:46;99498.69;;;16.38;48.43
79067;BME280;68470;50.224;14.348;2023-03-20T12:04:30;99489.31;;;16.15;50.05
79067;BME280;68470;50.224;14.348;2023-03-20T12:07:21;99497.28;;;16.03;49.57
79067;BME280;68470;50.224;14.348;2023-03-20T12:09:56;99491.31;;;15.90;50.12
79067;BME280;68470;50.224;14.348;2023-03-20T12:12:46;99494.66;;;15.69;50.67
79067;BME280;68470;50.224;14.348;2023-03-20T12:17:55;99501.38;;;14.81;55.49
79067;BME280;68470;50.224;14.348;2023-03-20T12:20:35;99500.63;;;14.31;55.30
79067;BME280;68470;50.224;14.348;2023-03-20T12:23:22;99496.47;;;14.33;52.69
79067;BME280;68470;50.224;14.348;2023-03-20T12:26:00;99496.16;;;13.91;54.96
79067;BME280;68470;50.224;14.348;2023-03-20T12:34:18;99485.59;;;14.47;53.05
79067;BME280;68470;50.224;14.348;2023-03-20T12:36:48;99493.25;;;14.89;53.08
79067;BME280;68470;50.224;14.348;2023-03-20T12:39:19;99473.94;;;15.61;50.66
79067;BME280;68470;50.224;14.348;2023-03-20T12:47:26;99482.97;;;17.31;44.90
79067;BME280;68470;50.224;14.348;2023-03-20T13:05:07;99472.75;;;14.90;53.67
79067;BME280;68470;50.224;14.348;2023-03-20T13:08:02;99468.53;;;14.25;54.58
79067;BME280;68470;50.224;14.348;2023-03-20T13:10:38;99462.84;;;14.11;54.77
79067;BME280;68470;50.224;14.348;2023-03-20T13:18:35;99455.06;;;15.10;50.67
79067;BME280;68470;50.224;14.348;2023-03-20T13:21:09;99453.50;;;15.28;50.86
79067;BME280;68470;50.224;14.348;2023-03-20T13:24:06;99445.28;;;15.42;51.07
79067;BME280;68470;50.224;14.348;2023-03-20T13:26:43;99444.69;;;15.45;51.39
79067;BME280;68470;50.224;14.348;2023-03-20T13:29:17;99443.91;;;14.91;52.91
79067;BME280;68470;50.224;14.348;2023-03-20T13:35:44;99441.00;;;15.30;53.45
79067;BME280;68470;50.224;14.348;2023-03-20T13:38:14;99433.63;;;15.87;50.72
79067;BME280;68470;50.224;14.348;2023-03-20T13:40:43;99420.22;;;16.13;50.75
79067;BME280;68470;50.224;14.348;2023-03-20T13:45:46;99415.00;;;16.77;47.06
79067;BME280;68470;50.224;14.348;2023-03-20T13:48:27;99411.03;;;17.24;46.97
79067;BME280;68470;50.224;14.348;2023-03-20T13:53:42;99402.91;;;17.69;42.84
79067;BME280;68470;50.224;14.348;2023-03-20T13:56:19;99396.03;;;17.89;43.35
79067;BME280;68470;50.224;14.348;2023-03-20T13:58:57;99404.63;;;17.79;43.63
79067;BME280;68470;50.224;14.348;2023-03-20T14:04:28;99402.81;;;17.19;43.26
79067;BME280;68470;50.224;14.348;2023-03-20T14:06:56;99405.75;;;16.63;43.27
79067;BME280;68470;50.224;14.348;2023-03-20T14:09:34;99403.28;;;16.47;44.29
79067;BME280;68470;50.224;14.348;2023-03-20T14:12:09;99409.09;;;16.32;43.94
79067;BME280;68470;50.224;14.348;2023-03-20T14:14:42;99409.66;;;16.29;45.90
79067;BME280;68470;50.224;14.348;2023-03-20T14:17:14;99410.22;;;16.31;44.45
79067;BME280;68470;50.224;14.348;2023-03-20T14:19:41;99409.66;;;16.48;45.06
79067;BME280;68470;50.224;14.348;2023-03-20T14:22:25;99409.81;;;16.38;44.53
79067;BME280;68470;50.224;14.348;2023-03-20T14:24:58;99408.25;;;16.32;45.45
79067;BME280;68470;50.224;14.348;2023-03-20T14:27:27;99413.06;;;16.26;45.70
79067;BME280;68470;50.224;14.348;2023-03-20T14:29:53;99411.63;;;16.29;46.14
79067;BME280;68470;50.224;14.348;2023-03-20T14:34:58;99402.41;;;16.33;45.95
79067;BME280;68470;50.224;14.348;2023-03-20T14:40:23;99417.63;;;16.36;45.81
79067;BME280;68470;50.224;14.348;2023-03-20T14:43:00;99405.25;;;16.09;46.32
79067;BME280;68470;50.224;14.348;2023-03-20T14:45:40;99408.34;;;15.89;47.91
79067;BME280;68470;50.224;14.348;2023-03-20T14:48:23;99413.22;;;15.78;47.70
79067;BME280;68470;50.224;14.348;2023-03-20T14:51:05;99409.94;;;15.52;48.35
79067;BME280;68470;50.224;14.348;2023-03-20T14:53:33;99407.22;;;15.28;48.85
79067;BME280;68470;50.224;14.348;2023-03-20T14:56:08;99407.84;;;14.96;49.06
79067;BME280;68470;50.224;14.348;2023-03-20T14:59:00;99413.53;;;14.81;49.32
79067;BME280;68470;50.224;14.348;2023-03-20T15:01:44;99409.75;;;14.72;49.80
79067;BME280;68470;50.224;14.348;2023-03-20T15:04:38;99404.03;;;14.63;49.62
79067;BME280;68470;50.224;14.348;2023-03-20T15:09:40;99398.91;;;14.47;47.36
79067;BME280;68470;50.224;14.348;2023-03-20T15:12:09;99402.47;;;14.52;47.93
79067;BME280;68470;50.224;14.348;2023-03-20T15:14:41;99406.25;;;14.61;48.54
79067;BME280;68470;50.224;14.348;2023-03-20T15:17:20;99403.53;;;14.56;48.12